createdAt,value
2023-06-30T00:00:23.805Z,9.711702
2023-06-30T00:01:23.947Z,9.711634
2023-06-30T00:02:23.881Z,9.711617
2023-06-30T00:03:23.816Z,9.711735
2023-06-30T00:04:23.942Z,9.711725
2023-06-30T00:05:23.774Z,9.711739
2023-06-30T00:06:23.752Z,9.711762
2023-06-30T00:07:23.828Z,9.711649
2023-06-30T00:08:23.746Z,9.711898
2023-06-30T00:09:23.734Z,9.711591
2023-06-30T00:10:23.736Z,9.711703
2023-06-30T00:11:23.714Z,9.711572
2023-06-30T00:12:23.731Z,9.711650
2023-06-30T00:13:23.692Z,9.712010
2023-06-30T00:14:23.694Z,9.712119
2023-06-30T00:15:23.686Z,9.711963
2023-06-30T00:16:23.819Z,9.711775
2023-06-30T00:17:23.904Z,9.711775
2023-06-30T00:18:23.656Z,9.712004
2023-06-30T00:33:14.200Z,9.711706
2023-06-30T00:34:14.185Z,9.711683
2023-06-30T00:35:14.168Z,9.711859
2023-06-30T00:36:14.192Z,9.711932
2023-06-30T00:37:14.179Z,9.711826
2023-06-30T00:38:14.184Z,9.711698
2023-06-30T00:39:14.163Z,9.711850
2023-06-30T00:40:14.133Z,9.711655
2023-06-30T00:41:14.144Z,9.711768
2023-06-30T00:42:14.117Z,9.711773
2023-06-30T00:43:14.116Z,9.711797
2023-06-30T00:44:14.121Z,9.711683
2023-06-30T00:45:14.101Z,9.711695
2023-06-30T00:46:14.099Z,9.711713
2023-06-30T00:47:14.143Z,9.711761
2023-06-30T00:48:14.089Z,9.711740
2023-06-30T00:49:14.064Z,9.711691
2023-06-30T00:50:14.045Z,9.711711
2023-06-30T00:51:14.058Z,9.711702
2023-06-30T00:52:14.062Z,9.711738
2023-06-30T00:53:14.055Z,9.711789
2023-06-30T00:54:14.018Z,9.711842
2023-06-30T00:55:14.021Z,9.711740
2023-06-30T00:56:14.012Z,9.711707
2023-06-30T00:57:14.001Z,9.711691
2023-06-30T00:58:14.006Z,9.711695
2023-06-30T00:59:13.983Z,9.711690
2023-06-30T01:00:13.980Z,9.711676
2023-06-30T01:01:13.966Z,9.711664
2023-06-30T01:02:13.960Z,9.711719
2023-06-30T01:03:14.152Z,9.711673
2023-06-30T01:04:13.982Z,9.711677
2023-06-30T01:05:13.937Z,9.711592
2023-06-30T01:06:14.644Z,9.711641
2023-06-30T01:07:13.973Z,9.711736
2023-06-30T01:08:13.914Z,9.711759
2023-06-30T01:09:13.909Z,9.711689
2023-06-30T01:10:13.894Z,9.711684
2023-06-30T01:11:13.874Z,9.711729
2023-06-30T01:12:13.883Z,9.711692
2023-06-30T01:13:13.884Z,9.711791
2023-06-30T01:14:13.864Z,9.711821
2023-06-30T01:15:13.845Z,9.711683
2023-06-30T01:16:13.866Z,9.711644
2023-06-30T01:17:13.834Z,9.711745
2023-06-30T01:18:13.836Z,9.711690
2023-06-30T01:19:13.828Z,9.711677
2023-06-30T01:20:13.808Z,9.711721
2023-06-30T01:21:13.807Z,9.711696
2023-06-30T01:22:13.820Z,9.711525
2023-06-30T01:23:13.792Z,9.711663
2023-06-30T01:24:13.773Z,9.711785
2023-06-30T01:25:13.758Z,9.711669
2023-06-30T01:26:13.828Z,9.711833
2023-06-30T01:27:13.769Z,9.711687
2023-06-30T01:28:13.731Z,9.711663
2023-06-30T01:29:14.827Z,9.711648
2023-06-30T01:30:13.738Z,9.711595
2023-06-30T01:31:13.785Z,9.711591
2023-06-30T01:32:13.696Z,9.711778
2023-06-30T01:33:13.702Z,9.711733
2023-06-30T01:34:13.692Z,9.711721
2023-06-30T01:35:13.684Z,9.711771
2023-06-30T01:36:14.672Z,9.711804
2023-06-30T01:37:13.667Z,9.711753
2023-06-30T01:38:13.661Z,9.711689
2023-06-30T01:39:13.639Z,9.711665
2023-06-30T01:40:13.659Z,9.711701
2023-06-30T01:41:14.166Z,9.711593
2023-06-30T01:42:13.648Z,9.711590
2023-06-30T01:43:13.665Z,9.711647
2023-06-30T01:44:13.618Z,9.711573
2023-06-30T01:45:13.640Z,9.711546
2023-06-30T01:46:13.615Z,9.711671
2023-06-30T01:47:13.590Z,9.711703
2023-06-30T01:48:13.576Z,9.711706
2023-06-30T01:49:13.579Z,9.711547
2023-06-30T01:50:13.555Z,9.711654
2023-06-30T01:51:13.559Z,9.711709
2023-06-30T01:52:13.546Z,9.711685
2023-06-30T01:53:13.536Z,9.711707
2023-06-30T01:54:13.534Z,9.711721
2023-06-30T01:55:13.520Z,9.711728
2023-06-30T01:56:13.520Z,9.711621
2023-06-30T01:57:14.166Z,9.711738
2023-06-30T01:58:13.506Z,9.711694
2023-06-30T01:59:13.492Z,9.711725
2023-06-30T02:00:13.500Z,9.711689
2023-06-30T02:01:13.515Z,9.711735
2023-06-30T02:02:13.458Z,9.711785
2023-06-30T02:03:13.600Z,9.711742
2023-06-30T02:04:13.441Z,9.711712
2023-06-30T02:05:13.485Z,9.711762
2023-06-30T02:06:13.434Z,9.711762
2023-06-30T02:07:13.455Z,9.711693
2023-06-30T02:08:13.418Z,9.711743
2023-06-30T02:09:13.619Z,9.711670
2023-06-30T02:10:13.425Z,9.711766
2023-06-30T02:11:13.395Z,9.711740
2023-06-30T02:12:13.414Z,9.711770
2023-06-30T02:13:13.396Z,9.711798
2023-06-30T02:14:13.374Z,9.711749
2023-06-30T02:15:13.367Z,9.711749
2023-06-30T02:16:13.408Z,9.711811
2023-06-30T02:17:13.428Z,9.711745
2023-06-30T02:18:13.355Z,9.711753
2023-06-30T02:19:13.333Z,9.711527
2023-06-30T02:20:13.329Z,9.711748
2023-06-30T02:21:13.315Z,9.711809
2023-06-30T02:22:13.299Z,9.711864
2023-06-30T02:23:13.306Z,9.711982
2023-06-30T02:24:13.294Z,9.711875
2023-06-30T02:25:13.273Z,9.711756
2023-06-30T02:26:14.115Z,9.711813
2023-06-30T02:27:13.267Z,9.711852
2023-06-30T02:28:13.282Z,9.711814
2023-06-30T02:29:13.255Z,9.711676
2023-06-30T02:30:13.250Z,9.711591
2023-06-30T02:31:13.273Z,9.711752
2023-06-30T02:32:13.252Z,9.711729
2023-06-30T02:33:13.238Z,9.711691
2023-06-30T02:34:13.214Z,9.712238
2023-06-30T02:35:13.263Z,9.712232
2023-06-30T02:36:13.188Z,9.712016
2023-06-30T02:37:13.190Z,9.712010
2023-06-30T02:38:13.176Z,9.712379
2023-06-30T02:39:13.186Z,9.712034
2023-06-30T02:40:13.153Z,9.711844
2023-06-30T02:41:13.158Z,9.711967
2023-06-30T02:42:13.149Z,9.711821
2023-06-30T02:43:13.142Z,9.711875
2023-06-30T02:44:14.097Z,9.711819
2023-06-30T02:45:13.132Z,9.711761
2023-06-30T02:46:13.181Z,9.711831
2023-06-30T02:47:13.099Z,9.711919
2023-06-30T02:48:13.099Z,9.712117
2023-06-30T02:49:13.087Z,9.711761
2023-06-30T02:50:13.072Z,9.712044
2023-06-30T02:51:13.075Z,9.712239
2023-06-30T02:52:13.055Z,9.712110
2023-06-30T02:53:13.064Z,9.711989
2023-06-30T02:54:13.034Z,9.711826
2023-06-30T02:55:13.044Z,9.711873
2023-06-30T02:56:13.026Z,9.711912
2023-06-30T02:57:13.026Z,9.711704
2023-06-30T02:58:13.085Z,9.711753
2023-06-30T02:59:12.994Z,9.712153
2023-06-30T03:00:12.994Z,9.712037
2023-06-30T03:01:13.113Z,9.711825
2023-06-30T03:02:13.088Z,9.711823
2023-06-30T03:03:12.998Z,9.711723
2023-06-30T03:04:13.003Z,9.711689
2023-06-30T03:05:12.957Z,9.711778
2023-06-30T03:06:12.937Z,9.711709
2023-06-30T03:07:12.995Z,9.711731
2023-06-30T03:08:12.954Z,9.711735
2023-06-30T03:09:12.925Z,9.711899
2023-06-30T03:10:12.910Z,9.711816
2023-06-30T03:11:12.906Z,9.711847
2023-06-30T03:12:12.888Z,9.711947
2023-06-30T03:13:12.897Z,9.711785
2023-06-30T03:14:12.888Z,9.711902
2023-06-30T03:15:12.883Z,9.711992
2023-06-30T03:16:12.861Z,9.712012
2023-06-30T03:17:12.897Z,9.711967
2023-06-30T03:18:12.854Z,9.712203
2023-06-30T03:19:12.831Z,9.712192
2023-06-30T03:20:13.067Z,9.712147
2023-06-30T03:21:12.815Z,9.712093
2023-06-30T03:22:12.826Z,9.712144
2023-06-30T03:23:12.802Z,9.712439
2023-06-30T03:24:12.799Z,9.712325
2023-06-30T03:25:12.786Z,9.712409
2023-06-30T03:26:12.770Z,9.712557
2023-06-30T03:27:12.781Z,9.713282
2023-06-30T03:28:12.783Z,9.713869
2023-06-30T03:29:12.772Z,9.714101
2023-06-30T03:30:12.750Z,9.714269
2023-06-30T03:31:12.780Z,9.713571
2023-06-30T03:32:12.739Z,9.712941
2023-06-30T03:33:12.729Z,9.712464
2023-06-30T03:34:12.722Z,9.712318
2023-06-30T03:35:12.711Z,9.712218
2023-06-30T03:36:12.707Z,9.711865
2023-06-30T03:37:12.701Z,9.711739
2023-06-30T03:38:12.690Z,9.711558
2023-06-30T03:39:12.680Z,9.712033
2023-06-30T03:40:12.666Z,9.711798
2023-06-30T03:41:12.702Z,9.711823
2023-06-30T03:42:12.651Z,9.711715
2023-06-30T03:43:12.645Z,9.711707
2023-06-30T03:44:12.661Z,9.711651
2023-06-30T03:45:12.663Z,9.711782
2023-06-30T03:46:12.728Z,9.711734
2023-06-30T03:47:12.607Z,9.711699
2023-06-30T03:48:12.599Z,9.711613
2023-06-30T03:49:13.112Z,9.711580
2023-06-30T03:50:12.606Z,9.711622
2023-06-30T03:51:13.585Z,9.711615
2023-06-30T03:52:12.579Z,9.711658
2023-06-30T03:53:12.565Z,9.711662
2023-06-30T03:54:12.573Z,9.711645
2023-06-30T03:55:12.543Z,9.711832
2023-06-30T03:56:12.530Z,9.711836
2023-06-30T03:57:12.535Z,9.711911
2023-06-30T03:58:12.534Z,9.711732
2023-06-30T03:59:12.545Z,9.711713
2023-06-30T04:00:12.501Z,9.711700
2023-06-30T04:01:13.512Z,9.711657
2023-06-30T04:02:12.493Z,9.711693
2023-06-30T04:03:12.599Z,9.711702
2023-06-30T04:04:12.646Z,9.711718
2023-06-30T04:05:12.502Z,9.711746
2023-06-30T04:06:12.500Z,9.711724
2023-06-30T04:07:12.563Z,9.711646
2023-06-30T04:08:12.520Z,9.711669
2023-06-30T04:09:12.447Z,9.711656
2023-06-30T04:10:12.438Z,9.711656
2023-06-30T04:11:12.419Z,9.711673
2023-06-30T04:12:12.445Z,9.711679
2023-06-30T04:13:12.406Z,9.711719
2023-06-30T04:14:12.422Z,9.711636
2023-06-30T04:15:12.395Z,9.711636
2023-06-30T04:16:12.402Z,9.711696
2023-06-30T04:17:12.403Z,9.711625
2023-06-30T04:18:12.366Z,9.711786
2023-06-30T04:19:12.705Z,9.711880
2023-06-30T04:20:12.355Z,9.711854
2023-06-30T04:21:12.344Z,9.711705
2023-06-30T04:22:12.335Z,9.711901
2023-06-30T04:23:12.330Z,9.711782
2023-06-30T04:24:12.323Z,9.711803
2023-06-30T04:25:12.338Z,9.711763
2023-06-30T04:26:12.333Z,9.711688
2023-06-30T04:27:12.341Z,9.711699
2023-06-30T04:28:12.291Z,9.711820
2023-06-30T04:29:13.146Z,9.711904
2023-06-30T04:30:12.254Z,9.711763
2023-06-30T04:31:13.161Z,9.711771
2023-06-30T04:32:13.210Z,9.711771
2023-06-30T04:33:12.258Z,9.711686
2023-06-30T04:34:12.230Z,9.711757
2023-06-30T04:35:12.235Z,9.711656
2023-06-30T04:36:12.251Z,9.711802
2023-06-30T04:37:12.220Z,9.711609
2023-06-30T04:38:12.206Z,9.711868
2023-06-30T04:39:13.155Z,9.711803
2023-06-30T04:40:12.204Z,9.711755
2023-06-30T04:41:12.177Z,9.712148
2023-06-30T04:42:12.260Z,9.711982
2023-06-30T04:43:13.145Z,9.711770
2023-06-30T04:44:12.157Z,9.711999
2023-06-30T04:45:12.162Z,9.712316
2023-06-30T04:46:12.209Z,9.711617
2023-06-30T04:47:12.148Z,9.711673
2023-06-30T04:48:12.225Z,9.711699
2023-06-30T04:49:12.130Z,9.711697
2023-06-30T04:50:12.649Z,9.711813
2023-06-30T04:51:12.101Z,9.711876
2023-06-30T04:52:12.093Z,9.712036
2023-06-30T04:53:12.117Z,9.711802
2023-06-30T04:54:12.090Z,9.711707
2023-06-30T04:55:12.069Z,9.711617
2023-06-30T04:56:12.065Z,9.711798
2023-06-30T04:57:12.651Z,9.711658
2023-06-30T04:58:12.720Z,9.711928
2023-06-30T04:59:12.032Z,9.711874
2023-06-30T05:00:12.039Z,9.712458
2023-06-30T05:01:12.058Z,9.712529
2023-06-30T05:02:12.007Z,9.712424
2023-06-30T05:03:12.131Z,9.711994
2023-06-30T05:04:11.998Z,9.711747
2023-06-30T05:05:11.984Z,9.711790
2023-06-30T05:06:12.660Z,9.711846
2023-06-30T05:07:11.973Z,9.711846
2023-06-30T05:08:11.959Z,9.711772
2023-06-30T05:09:11.994Z,9.712076
2023-06-30T05:10:11.942Z,9.712291
2023-06-30T05:11:11.938Z,9.712273
2023-06-30T05:12:11.930Z,9.712400
2023-06-30T05:13:11.916Z,9.712092
2023-06-30T05:14:11.930Z,9.711768
2023-06-30T05:15:11.922Z,9.711580
2023-06-30T05:16:11.925Z,9.711380
2023-06-30T05:17:12.814Z,9.711713
2023-06-30T05:18:11.971Z,9.712023
2023-06-30T05:19:12.741Z,9.711725
2023-06-30T05:20:11.883Z,9.711836
2023-06-30T05:21:11.904Z,9.711740
2023-06-30T05:22:11.851Z,9.712390
2023-06-30T05:23:11.884Z,9.712872
2023-06-30T05:24:11.837Z,9.713142
2023-06-30T05:25:12.619Z,9.713348
2023-06-30T05:26:11.809Z,9.713072
2023-06-30T05:27:11.853Z,9.712493
2023-06-30T05:28:11.834Z,9.711802
2023-06-30T05:29:11.831Z,9.711302
2023-06-30T05:30:11.851Z,9.711237
2023-06-30T05:31:12.697Z,9.711421
2023-06-30T05:32:11.785Z,9.711446
2023-06-30T05:33:11.762Z,9.711614
2023-06-30T05:34:11.762Z,9.711070
2023-06-30T05:35:11.765Z,9.711377
2023-06-30T05:36:11.735Z,9.710921
2023-06-30T05:37:11.744Z,9.711829
2023-06-30T05:38:11.717Z,9.712044
2023-06-30T05:39:11.723Z,9.711971
2023-06-30T05:40:11.722Z,9.711803
2023-06-30T05:41:11.708Z,9.711750
2023-06-30T05:42:11.688Z,9.711763
2023-06-30T05:43:11.675Z,9.711722
2023-06-30T05:44:11.685Z,9.711731
2023-06-30T05:45:11.647Z,9.711723
2023-06-30T05:46:11.725Z,9.711694
2023-06-30T05:47:11.642Z,9.711672
2023-06-30T05:48:11.641Z,9.711681
2023-06-30T05:49:11.685Z,9.711660
2023-06-30T05:50:11.626Z,9.711683
2023-06-30T05:51:11.651Z,9.711661
2023-06-30T05:52:11.599Z,9.711690
2023-06-30T05:53:11.595Z,9.711683
2023-06-30T05:54:11.585Z,9.711702
2023-06-30T05:55:11.566Z,9.711684
2023-06-30T05:56:12.250Z,9.711675
2023-06-30T05:57:11.557Z,9.711634
2023-06-30T05:58:11.551Z,9.711683
2023-06-30T05:59:11.595Z,9.711683
2023-06-30T06:00:11.538Z,9.711656
2023-06-30T06:01:11.527Z,9.711675
2023-06-30T06:02:11.525Z,9.711700
2023-06-30T06:03:11.841Z,9.711683
2023-06-30T06:04:11.862Z,9.711690
2023-06-30T06:05:12.326Z,9.711705
2023-06-30T06:06:11.490Z,9.711697
2023-06-30T06:07:11.538Z,9.711688
2023-06-30T06:08:11.479Z,9.711651
2023-06-30T06:09:11.465Z,9.711609
2023-06-30T06:10:11.460Z,9.711663
2023-06-30T06:11:11.474Z,9.711657
2023-06-30T06:12:11.448Z,9.711653
2023-06-30T06:13:11.496Z,9.711672
2023-06-30T06:14:11.492Z,9.711729
2023-06-30T06:15:11.421Z,9.711769
2023-06-30T06:16:12.231Z,9.711728
2023-06-30T06:17:11.445Z,9.711738
2023-06-30T06:18:11.443Z,9.711705
2023-06-30T06:19:11.412Z,9.711716
2023-06-30T06:20:11.407Z,9.711693
2023-06-30T06:21:11.369Z,9.711699
2023-06-30T06:22:11.385Z,9.711701
2023-06-30T06:23:11.370Z,9.711667
2023-06-30T06:24:12.257Z,9.711662
2023-06-30T06:25:11.361Z,9.711640
2023-06-30T06:26:12.251Z,9.711672
2023-06-30T06:27:11.335Z,9.711685
2023-06-30T06:28:11.314Z,9.711717
2023-06-30T06:29:11.317Z,9.711696
2023-06-30T06:30:11.293Z,9.711643
2023-06-30T06:31:11.345Z,9.711602
2023-06-30T06:32:11.290Z,9.711611
2023-06-30T06:33:11.293Z,9.711636
2023-06-30T06:34:11.268Z,9.711579
2023-06-30T06:35:11.263Z,9.711618
2023-06-30T06:36:11.254Z,9.711615
2023-06-30T06:37:11.271Z,9.711588
2023-06-30T06:38:11.253Z,9.711597
2023-06-30T06:39:11.229Z,9.711676
2023-06-30T06:40:11.231Z,9.711671
2023-06-30T06:41:11.218Z,9.711679
2023-06-30T06:42:11.197Z,9.711654
2023-06-30T06:43:11.205Z,9.711673
2023-06-30T06:44:11.751Z,9.711797
2023-06-30T06:45:12.192Z,9.711729
2023-06-30T06:46:11.203Z,9.711690
2023-06-30T06:47:11.197Z,9.711556
2023-06-30T06:48:11.155Z,9.711574
2023-06-30T06:49:11.171Z,9.711566
2023-06-30T06:50:11.141Z,9.711657
2023-06-30T06:51:11.126Z,9.711696
2023-06-30T06:52:11.128Z,9.711658
2023-06-30T06:53:11.133Z,9.711569
2023-06-30T06:54:11.109Z,9.711480
2023-06-30T06:55:11.128Z,9.711724
2023-06-30T06:56:11.110Z,9.711700
2023-06-30T06:57:11.104Z,9.711654
2023-06-30T06:58:11.088Z,9.711735
2023-06-30T06:59:11.067Z,9.711661
2023-06-30T07:00:11.062Z,9.711856
2023-06-30T07:01:12.065Z,9.711633
2023-06-30T07:02:11.239Z,9.711469
2023-06-30T07:03:11.085Z,9.711559
2023-06-30T07:04:11.058Z,9.711561
2023-06-30T07:05:11.022Z,9.711777
2023-06-30T07:06:11.002Z,9.711744
2023-06-30T07:07:11.056Z,9.711559
2023-06-30T07:08:11.001Z,9.711535
2023-06-30T07:09:10.989Z,9.711498
2023-06-30T07:10:11.001Z,9.711484
2023-06-30T07:11:10.969Z,9.711773
2023-06-30T07:12:10.965Z,9.711700
2023-06-30T07:13:10.949Z,9.711484
2023-06-30T07:14:10.962Z,9.711701
2023-06-30T07:15:10.940Z,9.711678
2023-06-30T07:16:10.948Z,9.711651
2023-06-30T07:17:10.928Z,9.711464
2023-06-30T07:18:11.107Z,9.711862
2023-06-30T07:19:10.910Z,9.712322
2023-06-30T07:20:10.915Z,9.712210
2023-06-30T07:21:10.878Z,9.712275
2023-06-30T07:22:10.884Z,9.712369
2023-06-30T07:23:10.875Z,9.711974
2023-06-30T07:24:10.869Z,9.711701
2023-06-30T07:25:10.848Z,9.711823
2023-06-30T07:26:10.862Z,9.712004
2023-06-30T07:27:10.908Z,9.712023
2023-06-30T07:28:10.849Z,9.711845
2023-06-30T07:29:10.824Z,9.711693
2023-06-30T07:30:10.827Z,9.711883
2023-06-30T07:31:10.900Z,9.712040
2023-06-30T07:32:11.701Z,9.711807
2023-06-30T07:33:10.795Z,9.711841
2023-06-30T07:34:10.790Z,9.711841
2023-06-30T07:35:10.788Z,9.712070
2023-06-30T07:36:10.780Z,9.712131
2023-06-30T07:37:10.748Z,9.712255
2023-06-30T07:38:10.754Z,9.712212
2023-06-30T07:39:10.737Z,9.712338
2023-06-30T07:40:16.429Z,9.712375
2023-06-30T07:41:12.977Z,9.712406
2023-06-30T07:42:10.719Z,9.712259
2023-06-30T07:43:10.709Z,9.712333
2023-06-30T07:44:10.709Z,9.712459
2023-06-30T07:45:10.729Z,9.712353
2023-06-30T07:46:10.709Z,9.712414
2023-06-30T07:47:10.673Z,9.712439
2023-06-30T07:48:10.815Z,9.712456
2023-06-30T07:49:10.668Z,9.712346
2023-06-30T07:50:10.646Z,9.712408
2023-06-30T07:51:10.655Z,9.712317
2023-06-30T07:52:10.637Z,9.712256
2023-06-30T07:53:10.619Z,9.712195
2023-06-30T07:54:10.624Z,9.712331
2023-06-30T07:55:10.606Z,9.712379
2023-06-30T07:56:10.607Z,9.712343
2023-06-30T07:57:10.597Z,9.712452
2023-06-30T07:58:10.587Z,9.712324
2023-06-30T07:59:10.618Z,9.712099
2023-06-30T08:00:10.567Z,9.711967
2023-06-30T08:01:10.633Z,9.711905
2023-06-30T08:02:10.548Z,9.711715
2023-06-30T08:03:11.351Z,9.711713
2023-06-30T08:04:10.729Z,9.711709
2023-06-30T08:05:10.615Z,9.711637
2023-06-30T08:06:10.629Z,9.712079
2023-06-30T08:07:10.578Z,9.711919
2023-06-30T08:08:10.515Z,9.711875
2023-06-30T08:09:10.502Z,9.711808
2023-06-30T08:10:10.499Z,9.711601
2023-06-30T08:11:11.212Z,9.711609
2023-06-30T08:12:10.483Z,9.711637
2023-06-30T08:13:10.479Z,9.711561
2023-06-30T08:14:10.510Z,9.711683
2023-06-30T08:15:10.488Z,9.711791
2023-06-30T08:16:10.534Z,9.711782
2023-06-30T08:17:10.443Z,9.711712
2023-06-30T08:18:11.102Z,9.711551
2023-06-30T08:19:21.696Z,9.711686
2023-06-30T08:20:11.484Z,9.711807
2023-06-30T08:21:11.204Z,9.711690
2023-06-30T08:22:10.398Z,9.711724
2023-06-30T08:23:11.389Z,9.711798
2023-06-30T08:24:10.378Z,9.711656
2023-06-30T08:25:10.369Z,9.711617
2023-06-30T08:26:10.382Z,9.711723
2023-06-30T08:27:10.359Z,9.711787
2023-06-30T08:28:10.811Z,9.711759
2023-06-30T08:29:10.376Z,9.711880
2023-06-30T08:30:10.372Z,9.711749
2023-06-30T08:31:10.402Z,9.711743
2023-06-30T08:32:10.318Z,9.711724
2023-06-30T08:33:10.371Z,9.711757
2023-06-30T08:34:10.286Z,9.711699
2023-06-30T08:35:10.347Z,9.711616
2023-06-30T08:36:10.323Z,9.711659
2023-06-30T08:37:10.301Z,9.711697
2023-06-30T08:38:10.284Z,9.711743
2023-06-30T08:39:10.249Z,9.711600
2023-06-30T08:40:10.244Z,9.711571
2023-06-30T08:41:10.245Z,9.711652
2023-06-30T08:42:10.260Z,9.711683
2023-06-30T08:43:10.233Z,9.711699
2023-06-30T08:44:10.251Z,9.711721
2023-06-30T08:45:10.203Z,9.711666
2023-06-30T08:46:10.758Z,9.711715
2023-06-30T08:47:10.200Z,9.711722
2023-06-30T08:48:10.267Z,9.711688
2023-06-30T08:49:10.195Z,9.711754
2023-06-30T08:50:10.191Z,9.711628
2023-06-30T08:51:10.162Z,9.711711
2023-06-30T08:52:10.157Z,9.711632
2023-06-30T08:53:10.139Z,9.711647
2023-06-30T08:54:11.744Z,9.711673
2023-06-30T08:55:10.128Z,9.711712
2023-06-30T08:56:10.118Z,9.711750
2023-06-30T08:57:10.889Z,9.711692
2023-06-30T08:58:21.040Z,9.711694
2023-06-30T08:59:12.114Z,9.711677
2023-06-30T09:00:10.093Z,9.711696
2023-06-30T09:01:10.177Z,9.711775
2023-06-30T09:02:10.140Z,9.711632
2023-06-30T09:03:10.229Z,9.711663
2023-06-30T09:04:10.281Z,9.711703
2023-06-30T09:05:10.111Z,9.711716
2023-06-30T09:06:10.083Z,9.711670
2023-06-30T09:07:10.128Z,9.711656
2023-06-30T09:08:10.032Z,9.711658
2023-06-30T09:09:10.029Z,9.711717
2023-06-30T09:10:10.059Z,9.711667
2023-06-30T09:11:10.014Z,9.711766
2023-06-30T09:12:10.017Z,9.711657
2023-06-30T09:13:10.002Z,9.711635
2023-06-30T09:14:10.016Z,9.711613
2023-06-30T09:15:09.983Z,9.711712
2023-06-30T09:16:10.022Z,9.711707
2023-06-30T09:17:09.972Z,9.711716
2023-06-30T09:18:09.987Z,9.711706
2023-06-30T09:19:09.964Z,9.711713
2023-06-30T09:20:09.934Z,9.711692
2023-06-30T09:21:09.935Z,9.711775
2023-06-30T09:22:53.908Z,9.711865
2023-06-30T09:23:10.907Z,9.711758
2023-06-30T09:24:09.915Z,9.711791
2023-06-30T09:25:09.893Z,9.711773
2023-06-30T09:26:09.961Z,9.711780
2023-06-30T09:27:09.881Z,9.711740
2023-06-30T09:28:09.902Z,9.711693
2023-06-30T09:29:09.883Z,9.711759
2023-06-30T09:30:10.747Z,9.711632
2023-06-30T09:31:09.854Z,9.711617
2023-06-30T09:32:10.556Z,9.711653
2023-06-30T09:33:11.041Z,9.711805
2023-06-30T09:34:09.949Z,9.711807
2023-06-30T09:35:09.832Z,9.711896
2023-06-30T09:36:09.808Z,9.711850
2023-06-30T09:37:12.340Z,9.711802
2023-06-30T09:38:10.828Z,9.711656
2023-06-30T09:39:09.802Z,9.711675
2023-06-30T09:40:09.784Z,9.711748
2023-06-30T09:41:09.780Z,9.711641
2023-06-30T09:42:09.762Z,9.711457
2023-06-30T09:43:09.743Z,9.711499
2023-06-30T09:44:09.753Z,9.711388
2023-06-30T09:45:09.740Z,9.711418
2023-06-30T09:46:10.300Z,9.711573
2023-06-30T09:47:09.724Z,9.711603
2023-06-30T09:48:09.698Z,9.711788
2023-06-30T09:49:09.730Z,9.711626
2023-06-30T09:50:09.736Z,9.711687
2023-06-30T09:51:09.753Z,9.711571
2023-06-30T09:52:09.671Z,9.711772
2023-06-30T09:53:09.692Z,9.711646
2023-06-30T09:54:09.690Z,9.711537
2023-06-30T09:55:09.642Z,9.711622
2023-06-30T09:56:09.742Z,9.711606
2023-06-30T09:57:09.646Z,9.711987
2023-06-30T09:58:09.622Z,9.711980
2023-06-30T09:59:09.615Z,9.711735
2023-06-30T10:00:18.441Z,9.711656
2023-06-30T10:01:11.627Z,9.711659
2023-06-30T10:02:09.604Z,9.711701
2023-06-30T10:03:09.792Z,9.711691
2023-06-30T10:04:09.582Z,9.711668
2023-06-30T10:05:09.564Z,9.711677
2023-06-30T10:06:09.579Z,9.711700
2023-06-30T10:07:09.612Z,9.711684
2023-06-30T10:08:09.611Z,9.711727
2023-06-30T10:09:09.550Z,9.711731
2023-06-30T10:10:09.531Z,9.711741
2023-06-30T10:11:09.585Z,9.711695
2023-06-30T10:12:09.541Z,9.711674
2023-06-30T10:13:09.595Z,9.711699
2023-06-30T10:14:09.588Z,9.711674
2023-06-30T10:15:09.501Z,9.711699
2023-06-30T10:16:09.507Z,9.711705
2023-06-30T10:17:09.489Z,9.711699
2023-06-30T10:18:10.295Z,9.711679
2023-06-30T10:19:09.481Z,9.711691
2023-06-30T10:20:09.462Z,9.711702
2023-06-30T10:21:09.484Z,9.711727
2023-06-30T10:22:09.474Z,9.711710
2023-06-30T10:23:09.511Z,9.711740
2023-06-30T10:24:10.294Z,9.711670
2023-06-30T10:25:09.428Z,9.711802
2023-06-30T10:26:09.439Z,9.711766
2023-06-30T10:27:09.414Z,9.711692
2023-06-30T10:28:10.361Z,9.711669
2023-06-30T10:29:09.423Z,9.711681
2023-06-30T10:30:09.386Z,9.711688
2023-06-30T10:31:11.362Z,9.711731
2023-06-30T10:32:09.385Z,9.711710
2023-06-30T10:33:11.337Z,9.711623
2023-06-30T10:34:09.355Z,9.711597
2023-06-30T10:35:09.335Z,9.711514
2023-06-30T10:36:09.341Z,9.711512
2023-06-30T10:37:09.341Z,9.711537
2023-06-30T10:38:09.837Z,9.711251
2023-06-30T10:39:09.312Z,9.711480
2023-06-30T10:40:09.851Z,9.711671
2023-06-30T10:41:09.296Z,9.711715
2023-06-30T10:42:09.312Z,9.711371
2023-06-30T10:43:09.284Z,9.711301
2023-06-30T10:44:09.295Z,9.711243
2023-06-30T10:45:09.277Z,9.711393
2023-06-30T10:46:12.475Z,9.711266
2023-06-30T10:47:10.302Z,9.711011
2023-06-30T10:48:09.345Z,9.711311
2023-06-30T10:49:09.235Z,9.711322
2023-06-30T10:50:09.232Z,9.711688
2023-06-30T10:51:09.241Z,9.711685
2023-06-30T10:52:09.265Z,9.711868
2023-06-30T10:53:09.323Z,9.711880
2023-06-30T10:54:09.193Z,9.711848
2023-06-30T10:55:09.211Z,9.711578
2023-06-30T10:56:09.172Z,9.711617
2023-06-30T10:57:09.178Z,9.711530
2023-06-30T10:58:09.928Z,9.711322
2023-06-30T10:59:09.365Z,9.711436
2023-06-30T11:00:10.873Z,9.711251
2023-06-30T11:01:10.796Z,9.711095
2023-06-30T11:02:09.129Z,9.711665
2023-06-30T11:03:09.391Z,9.711722
2023-06-30T11:04:09.310Z,9.711787
2023-06-30T11:05:09.160Z,9.711752
2023-06-30T21:55:31.815Z,9.711707
2023-06-30T21:56:30.770Z,9.711625
2023-06-30T21:57:30.822Z,9.711638
2023-06-30T21:58:30.778Z,9.711679
2023-06-30T21:59:30.737Z,9.711634
2023-06-30T22:00:31.746Z,9.711638
2023-06-30T22:01:39.837Z,9.711651
2023-06-30T22:02:32.833Z,9.711629
2023-06-30T22:03:31.533Z,9.711653
2023-06-30T22:04:30.813Z,9.711647
2023-06-30T22:05:30.717Z,9.711669
2023-06-30T22:06:30.700Z,9.711663
2023-06-30T22:07:30.699Z,9.711680
2023-06-30T22:08:30.688Z,9.711669
2023-06-30T22:09:30.688Z,9.711636
2023-06-30T22:10:30.676Z,9.711647
2023-06-30T22:11:30.657Z,9.711614
2023-06-30T22:12:30.651Z,9.711591
2023-06-30T22:13:31.336Z,9.711601
2023-06-30T22:14:30.657Z,9.711636
2023-06-30T22:15:30.633Z,9.711629
2023-06-30T22:16:30.682Z,9.711672
2023-06-30T22:17:30.776Z,9.711727
2023-06-30T22:18:30.599Z,9.711712
2023-06-30T22:19:30.605Z,9.711681
2023-06-30T22:20:30.591Z,9.711682
2023-06-30T22:21:30.596Z,9.711686
2023-06-30T22:22:30.570Z,9.711704
2023-06-30T22:23:30.583Z,9.711747
2023-06-30T22:24:30.568Z,9.711759
2023-06-30T22:25:30.568Z,9.711690
2023-06-30T22:26:30.557Z,9.711664
2023-06-30T22:27:30.544Z,9.711757
2023-06-30T22:28:30.534Z,9.711759
2023-06-30T22:29:30.582Z,9.711733
2023-06-30T22:30:30.594Z,9.711882
2023-06-30T22:31:30.517Z,9.711771
2023-06-30T22:32:30.526Z,9.711548
2023-06-30T22:33:30.494Z,9.711494
2023-06-30T22:34:30.486Z,9.711694
2023-06-30T22:35:30.482Z,9.711714
2023-06-30T22:36:30.484Z,9.711667
2023-06-30T22:37:30.474Z,9.711720
2023-06-30T22:38:30.445Z,9.711666
2023-06-30T22:39:30.456Z,9.711688
2023-06-30T22:40:30.440Z,9.711674
2023-06-30T22:41:30.426Z,9.711681
2023-06-30T22:42:30.414Z,9.711650
2023-06-30T22:43:30.415Z,9.711634
2023-06-30T22:44:30.387Z,9.711759
2023-06-30T22:45:30.409Z,9.711701
2023-06-30T22:46:30.414Z,9.711650
2023-06-30T22:47:31.314Z,9.711667